createdAt,value
2022-08-05T00:01:28.564Z,66.70
2022-08-05T00:03:56.915Z,67.00
2022-08-05T00:06:30.655Z,67.50
2022-08-05T00:09:13.181Z,67.90
2022-08-05T00:11:48.393Z,68.10
2022-08-05T00:14:17.391Z,67.40
2022-08-05T00:16:52.387Z,67.70
2022-08-05T00:19:22.318Z,68.70
2022-08-05T00:21:49.749Z,69.20
2022-08-05T00:24:19.268Z,69.70
2022-08-05T00:26:53.041Z,70.50
2022-08-05T00:29:25.577Z,70.40
2022-08-05T00:32:12.724Z,70.20
2022-08-05T00:34:55.425Z,70.20
2022-08-05T00:37:50.464Z,69.60
2022-08-05T00:40:17.747Z,70.20
2022-08-05T00:42:55.381Z,71.90
2022-08-05T00:45:38.801Z,72.40
2022-08-05T00:48:08.174Z,73.30
2022-08-05T00:50:36.505Z,74.00
2022-08-05T00:53:03.568Z,74.00
2022-08-05T00:55:43.592Z,74.10
2022-08-05T00:58:11.598Z,74.20
2022-08-05T01:00:39.801Z,74.00
2022-08-05T01:03:07.852Z,74.10
2022-08-05T01:05:35.133Z,73.60
2022-08-05T01:08:39.977Z,73.80
2022-08-05T01:10:54.798Z,73.50
2022-08-05T01:13:27.599Z,73.80
2022-08-05T01:16:32.824Z,74.70
2022-08-05T01:19:03.743Z,75.30
2022-08-05T01:21:42.960Z,75.40
2022-08-05T01:24:20.719Z,75.40
2022-08-05T01:26:58.393Z,75.10
2022-08-05T01:29:27.475Z,75.20
2022-08-05T01:32:00.718Z,75.80
2022-08-05T01:34:48.709Z,76.20
2022-08-05T01:37:24.779Z,76.40
2022-08-05T01:39:58.727Z,77.00
2022-08-05T01:42:27.167Z,77.40
2022-08-05T01:44:56.258Z,76.90
2022-08-05T01:47:24.516Z,77.00
2022-08-05T01:50:07.904Z,76.90
2022-08-05T01:52:43.991Z,78.50
2022-08-05T01:55:12.897Z,79.70
2022-08-05T01:58:11.872Z,80.30
2022-08-05T02:00:30.550Z,80.50
2022-08-05T02:03:00.161Z,80.80
2022-08-05T02:05:34.222Z,80.80
2022-08-05T02:08:01.987Z,81.50
2022-08-05T02:10:31.233Z,82.70
2022-08-05T02:13:02.572Z,83.30
2022-08-05T02:15:36.032Z,84.00
2022-08-05T02:18:30.925Z,84.30
2022-08-05T02:21:02.625Z,85.10
2022-08-05T02:23:33.732Z,86.10
2022-08-05T02:26:05.325Z,86.60
2022-08-05T02:28:38.115Z,87.70
2022-08-05T02:31:14.617Z,88.20
2022-08-05T02:33:45.170Z,89.20
2022-08-05T02:36:16.957Z,90.10
2022-08-05T02:38:53.553Z,91.10
2022-08-05T02:41:22.992Z,91.90
2022-08-05T02:44:02.919Z,93.10
2022-08-05T02:46:53.428Z,93.90
2022-08-05T02:49:27.699Z,94.00
2022-08-05T02:52:05.952Z,94.40
2022-08-05T02:54:35.687Z,94.40
2022-08-05T02:57:09.861Z,95.10
2022-08-05T02:59:50.150Z,95.40
2022-08-05T03:02:20.553Z,95.60
2022-08-05T03:04:48.686Z,97.30
2022-08-05T03:07:40.531Z,98.80
2022-08-05T03:10:08.846Z,99.30
2022-08-05T03:12:37.114Z,98.30
2022-08-05T03:15:06.722Z,97.80
2022-08-05T03:17:41.620Z,98.10
2022-08-05T03:20:10.290Z,98.20
2022-08-05T03:22:37.346Z,98.20
2022-08-05T03:25:32.742Z,98.20
2022-08-05T03:28:00.499Z,98.30
2022-08-05T03:30:33.840Z,98.40
2022-08-05T03:33:02.289Z,98.60
2022-08-05T03:35:29.892Z,98.70
2022-08-05T03:38:01.302Z,99.00
2022-08-05T03:40:32.443Z,99.00
2022-08-05T03:43:15.707Z,99.10
2022-08-05T03:45:57.910Z,99.50
2022-08-05T03:48:28.940Z,99.90
2022-08-05T03:52:38.671Z,99.90
2022-08-05T03:55:53.446Z,99.90
2022-08-05T03:56:46.508Z,99.90
2022-08-05T03:59:20.392Z,99.90
2022-08-05T04:01:49.444Z,99.90
2022-08-05T04:04:21.232Z,99.90
2022-08-05T04:06:51.066Z,99.90
2022-08-05T04:09:26.018Z,99.90
2022-08-05T04:11:53.364Z,99.90
2022-08-05T04:14:29.733Z,99.90
2022-08-05T04:16:58.870Z,99.30
2022-08-05T04:19:25.949Z,97.70
2022-08-05T04:22:08.529Z,96.40
2022-08-05T04:24:44.339Z,94.60
2022-08-05T04:27:15.295Z,92.10
2022-08-05T04:29:42.557Z,89.40
2022-08-05T04:32:09.879Z,84.60
2022-08-05T04:34:43.131Z,80.40
2022-08-05T04:37:10.591Z,76.40
2022-08-05T04:39:37.845Z,72.40
2022-08-05T04:42:06.666Z,70.00
2022-08-05T04:44:33.750Z,68.90
2022-08-05T04:47:09.648Z,67.40
2022-08-05T04:49:38.925Z,66.30
2022-08-05T04:52:27.486Z,65.70
2022-08-05T04:54:57.246Z,64.10
2022-08-05T04:57:29.161Z,62.00
2022-08-05T04:59:57.247Z,60.00
2022-08-05T05:02:36.818Z,58.00
2022-08-05T05:05:16.987Z,56.80
2022-08-05T05:08:01.782Z,55.10
2022-08-05T05:10:29.995Z,53.50
2022-08-05T05:12:57.710Z,52.10
2022-08-05T05:15:57.291Z,50.90
2022-08-05T05:18:33.372Z,50.40
2022-08-05T05:21:01.438Z,49.20
2022-08-05T05:23:39.163Z,48.10
2022-08-05T05:26:15.668Z,46.60
2022-08-05T05:28:44.805Z,45.00
2022-08-05T05:31:12.441Z,43.70
2022-08-05T05:33:58.766Z,42.80
2022-08-05T05:36:28.637Z,42.30
2022-08-05T05:38:57.491Z,41.30
2022-08-05T05:41:24.610Z,41.00
2022-08-05T05:43:56.745Z,39.50
2022-08-05T05:46:25.713Z,39.60
2022-08-05T05:48:52.681Z,39.40
2022-08-05T05:51:23.821Z,38.70
2022-08-05T05:53:57.239Z,38.30
2022-08-05T05:56:32.965Z,38.00
2022-08-05T05:59:06.212Z,37.30
2022-08-05T06:01:37.539Z,36.90
2022-08-05T06:04:11.647Z,36.60
2022-08-05T06:06:47.529Z,36.50
2022-08-05T06:09:17.621Z,36.20
2022-08-05T06:12:01.880Z,35.70
2022-08-05T06:14:33.373Z,35.70
2022-08-05T06:17:22.045Z,38.00
2022-08-05T06:19:56.621Z,39.40
2022-08-05T06:22:28.001Z,42.40
2022-08-05T06:24:54.936Z,42.70
2022-08-05T06:28:09.531Z,40.30
2022-08-05T06:30:20.054Z,38.70
2022-08-05T06:32:48.462Z,38.10
2022-08-05T06:36:03.059Z,37.20
2022-08-05T06:38:11.348Z,36.60
2022-08-05T06:40:42.048Z,36.00
2022-08-05T06:43:58.654Z,35.40
2022-08-05T06:46:07.323Z,35.70
2022-08-05T06:48:53.428Z,35.70
2022-08-05T06:51:29.529Z,35.70
2022-08-05T06:54:01.968Z,35.80
2022-08-05T06:56:29.904Z,36.40
2022-08-05T06:59:00.219Z,36.90
2022-08-05T07:01:31.945Z,35.80
2022-08-05T07:04:00.392Z,35.90
2022-08-05T07:06:28.521Z,35.40
2022-08-05T07:08:55.576Z,35.90
2022-08-05T07:11:25.542Z,37.00
2022-08-05T07:14:15.855Z,37.30
2022-08-05T07:17:59.396Z,37.90
2022-08-05T07:22:27.662Z,40.70
2022-08-05T07:24:55.003Z,43.30
2022-08-05T07:27:23.565Z,43.90
2022-08-05T07:30:24.136Z,45.10
2022-08-05T07:32:44.267Z,46.50
2022-08-05T07:36:04.657Z,47.80
2022-08-05T07:38:05.046Z,48.30
2022-08-05T07:40:44.264Z,49.10
2022-08-05T07:43:20.168Z,49.00
2022-08-05T07:45:57.647Z,48.80
2022-08-05T07:49:02.099Z,47.60
2022-08-05T07:51:23.431Z,47.40
2022-08-05T07:54:01.923Z,46.90
2022-08-05T07:57:01.196Z,46.40
2022-08-05T07:59:15.960Z,46.50
2022-08-05T08:01:52.466Z,46.30
2022-08-05T08:04:37.672Z,47.10
2022-08-05T08:07:07.486Z,47.50
2022-08-05T08:09:34.994Z,48.40
2022-08-05T08:12:09.778Z,48.40
2022-08-05T08:14:46.870Z,48.50
2022-08-05T08:17:15.768Z,49.40
2022-08-05T08:20:22.955Z,49.50
2022-08-05T08:22:32.378Z,49.40
2022-08-05T08:25:03.466Z,49.50
2022-08-05T08:27:45.124Z,50.10
2022-08-05T08:30:29.704Z,49.40
2022-08-05T08:33:08.423Z,49.60
2022-08-05T08:35:41.053Z,50.10
2022-08-05T08:38:11.815Z,49.70
2022-08-05T08:40:46.641Z,49.90
2022-08-05T08:44:56.490Z,50.20
2022-08-05T08:46:10.007Z,49.90
2022-08-05T08:49:06.173Z,50.20
2022-08-05T08:52:03.126Z,50.00
2022-08-05T08:54:21.968Z,49.90
2022-08-05T08:56:56.468Z,49.50
2022-08-05T08:59:27.887Z,49.80
2022-08-05T09:02:01.807Z,49.80
2022-08-05T09:04:30.471Z,48.60
2022-08-05T09:06:58.367Z,48.70
2022-08-05T09:09:25.964Z,48.00
2022-08-05T09:12:06.060Z,48.50
2022-08-05T09:14:56.545Z,48.10
2022-08-05T09:17:41.041Z,48.40
2022-08-05T09:20:11.359Z,48.70
2022-08-05T09:23:05.247Z,47.70
2022-08-05T09:26:02.278Z,47.00
2022-08-05T09:28:32.205Z,46.20
2022-08-05T09:31:23.394Z,46.40
2022-08-05T09:33:59.160Z,46.80
2022-08-05T09:36:54.655Z,46.40
2022-08-05T09:39:41.897Z,46.70
2022-08-05T09:42:23.500Z,45.90
2022-08-05T09:44:56.387Z,46.00
2022-08-05T09:47:25.484Z,47.00
2022-08-05T09:50:00.525Z,47.90
2022-08-05T09:52:29.555Z,47.90
2022-08-05T09:55:56.506Z,48.10
2022-08-05T09:58:11.215Z,47.40
2022-08-05T10:00:38.600Z,47.40
2022-08-05T10:03:09.928Z,47.90
2022-08-05T10:05:36.953Z,47.90
2022-08-05T10:08:36.659Z,47.40
2022-08-05T10:10:55.016Z,47.30
2022-08-05T10:13:45.627Z,46.80
2022-08-05T10:16:29.269Z,46.70
2022-08-05T10:18:57.141Z,46.30
2022-08-05T10:21:24.363Z,46.30
2022-08-05T10:23:59.276Z,45.80
2022-08-05T10:26:32.666Z,47.70
2022-08-05T10:29:01.104Z,46.70
2022-08-05T10:32:53.842Z,46.60
2022-08-05T10:34:17.029Z,47.30
2022-08-05T10:36:44.306Z,46.60
2022-08-05T10:39:24.984Z,46.30
2022-08-05T10:42:34.672Z,46.50
2022-08-05T10:45:02.091Z,46.00
2022-08-05T10:48:30.213Z,45.20
2022-08-05T10:50:57.959Z,45.30
2022-08-05T10:53:51.490Z,45.70
2022-08-05T10:56:26.028Z,45.20
2022-08-05T10:58:53.259Z,45.20
2022-08-05T11:01:55.094Z,44.80
2022-08-05T11:04:17.797Z,45.20
2022-08-05T11:07:01.351Z,44.40
2022-08-05T11:09:46.436Z,45.30
2022-08-05T11:12:32.553Z,44.00
2022-08-05T11:15:19.262Z,43.80
2022-08-05T11:17:57.253Z,44.00
2022-08-05T11:20:34.342Z,44.60
2022-08-05T11:23:21.881Z,43.50
2022-08-05T11:26:09.446Z,44.20
2022-08-05T11:28:37.005Z,44.00
2022-08-05T11:31:06.489Z,43.00
2022-08-05T11:33:46.218Z,43.10
2022-08-05T11:36:34.586Z,43.40
2022-08-05T11:39:06.245Z,43.90
2022-08-05T11:42:01.713Z,42.70
2022-08-05T11:44:41.270Z,43.30
2022-08-05T11:47:48.621Z,43.10
2022-08-05T11:50:10.562Z,44.70
2022-08-05T11:52:44.074Z,44.00
2022-08-05T11:55:13.450Z,43.70
2022-08-05T11:58:09.811Z,42.00
2022-08-05T12:00:38.655Z,43.10
2022-08-05T12:03:29.413Z,42.00
2022-08-05T12:06:06.260Z,42.20
2022-08-05T12:08:51.099Z,41.20
2022-08-05T12:11:24.570Z,41.20
2022-08-05T12:14:03.898Z,41.50
2022-08-05T12:16:38.494Z,42.00
2022-08-05T12:19:06.643Z,42.70
2022-08-05T12:21:39.049Z,43.40
2022-08-05T12:24:07.727Z,43.70
2022-08-05T12:26:36.234Z,43.80
2022-08-05T12:29:09.738Z,42.40
2022-08-05T12:31:53.628Z,43.40
2022-08-05T12:34:28.765Z,42.80
2022-08-05T12:36:56.908Z,41.60
2022-08-05T12:39:34.534Z,42.00
2022-08-05T12:42:26.792Z,42.10
2022-08-05T12:45:01.285Z,42.00
2022-08-05T12:47:30.746Z,41.00
2022-08-05T12:50:05.336Z,40.50
2022-08-05T12:52:38.740Z,41.00
2022-08-05T12:55:23.493Z,40.80
2022-08-05T12:58:48.829Z,41.00
2022-08-05T13:02:01.664Z,41.20
2022-08-05T13:03:32.346Z,41.60
2022-08-05T13:06:01.064Z,42.30
2022-08-05T13:08:32.356Z,41.80
2022-08-05T13:11:01.495Z,41.20
2022-08-05T13:14:06.007Z,41.30
2022-08-05T13:16:16.889Z,42.50
2022-08-05T13:18:58.483Z,42.50
2022-08-05T13:21:27.772Z,42.60
2022-08-05T13:23:55.019Z,41.60
2022-08-05T13:26:27.240Z,40.90
2022-08-05T13:28:57.625Z,40.90
2022-08-05T13:31:33.992Z,41.10
2022-08-05T13:34:22.767Z,42.20
2022-08-05T13:36:53.238Z,41.00
2022-08-05T13:40:14.449Z,41.10
2022-08-05T13:42:07.767Z,41.50
2022-08-05T13:44:45.419Z,40.60
2022-08-05T13:47:28.070Z,40.80
2022-08-05T13:50:04.785Z,40.70
2022-08-05T13:52:37.512Z,40.00
2022-08-05T13:55:07.519Z,40.30
2022-08-05T13:57:51.173Z,40.20
2022-08-05T14:00:26.778Z,41.00
2022-08-05T14:02:57.918Z,40.90
2022-08-05T14:05:47.904Z,39.30
2022-08-05T14:08:20.826Z,39.60
2022-08-05T14:10:54.442Z,41.10
2022-08-05T14:13:30.444Z,40.50
2022-08-05T14:16:05.116Z,40.40
2022-08-05T14:18:37.963Z,40.40
2022-08-05T14:22:07.137Z,39.80
2022-08-05T14:23:52.136Z,40.60
2022-08-05T14:26:36.784Z,39.80
2022-08-05T14:29:16.244Z,39.70
2022-08-05T14:32:02.132Z,39.80
2022-08-05T14:34:35.216Z,40.90
2022-08-05T14:37:03.469Z,40.60
2022-08-05T14:39:49.821Z,40.50
2022-08-05T14:42:22.495Z,40.60
2022-08-05T14:44:52.063Z,41.30
2022-08-05T14:48:02.659Z,41.40
2022-08-05T14:50:17.406Z,41.10
2022-08-05T14:52:53.060Z,40.60
2022-08-05T14:55:20.822Z,40.90
2022-08-05T14:57:54.360Z,41.40
2022-08-05T15:00:28.050Z,41.20
2022-08-05T15:02:56.697Z,41.60
2022-08-05T15:05:29.836Z,41.00
2022-08-05T15:08:38.012Z,41.40
2022-08-05T15:11:00.667Z,42.10
2022-08-05T15:13:45.061Z,41.60
2022-08-05T15:16:13.890Z,41.80
2022-08-05T15:18:41.286Z,41.50
2022-08-05T15:21:08.859Z,41.80
2022-08-05T15:23:35.819Z,42.30
2022-08-05T15:26:05.144Z,42.10
2022-08-05T15:28:34.591Z,42.60
2022-08-05T15:31:03.670Z,43.00
2022-08-05T15:34:05.630Z,43.50
2022-08-05T15:36:25.526Z,43.90
2022-08-05T15:40:39.724Z,43.90
2022-08-05T15:41:55.731Z,44.20
2022-08-05T15:44:24.476Z,43.60
2022-08-05T15:46:53.047Z,43.60
2022-08-05T15:49:52.021Z,44.10
2022-08-05T15:52:16.180Z,44.10
2022-08-05T15:54:43.767Z,44.30
2022-08-05T15:57:11.481Z,43.60
2022-08-05T15:59:42.331Z,42.70
2022-08-05T16:02:14.435Z,42.90
2022-08-05T16:04:42.501Z,43.00
2022-08-05T16:07:10.581Z,43.60
2022-08-05T16:09:41.553Z,43.30
2022-08-05T16:12:09.378Z,44.20
2022-08-05T16:14:38.393Z,44.10
2022-08-05T16:17:05.544Z,44.70
2022-08-05T16:20:03.076Z,44.50
2022-08-05T16:22:24.323Z,44.80
2022-08-05T16:24:54.989Z,45.50
2022-08-05T16:27:46.831Z,45.20
2022-08-05T16:30:25.827Z,45.10
2022-08-05T16:32:54.979Z,45.00
2022-08-05T16:35:28.083Z,44.90
2022-08-05T16:38:16.051Z,45.40
2022-08-05T16:40:51.668Z,45.70
2022-08-05T16:43:23.885Z,45.20
2022-08-05T16:46:04.377Z,45.60
2022-08-05T16:48:36.872Z,45.70
2022-08-05T16:51:09.853Z,45.10
2022-08-05T16:54:05.179Z,45.20
2022-08-05T16:56:26.151Z,46.90
2022-08-05T16:58:53.175Z,47.80
2022-08-05T17:01:20.559Z,48.50
2022-08-05T17:03:47.799Z,48.60
2022-08-05T17:06:18.526Z,48.80
2022-08-05T17:08:53.645Z,49.00
2022-08-05T17:11:25.762Z,49.40
2022-08-05T17:14:05.337Z,49.40
2022-08-05T17:16:35.974Z,49.50
2022-08-05T17:19:07.887Z,49.00
2022-08-05T17:21:37.246Z,49.00
2022-08-05T17:24:14.310Z,49.00
2022-08-05T17:26:47.457Z,49.10
2022-08-05T17:29:14.865Z,48.90
2022-08-05T17:31:59.031Z,49.60
2022-08-05T17:34:29.795Z,49.70
2022-08-05T17:36:59.983Z,49.60
2022-08-05T17:39:34.162Z,49.90
2022-08-05T17:42:17.737Z,49.20
2022-08-05T17:44:50.263Z,49.50
2022-08-05T17:47:24.759Z,49.70
2022-08-05T17:50:04.036Z,50.00
2022-08-05T17:52:53.152Z,50.50
2022-08-05T17:55:27.435Z,50.00
2022-08-05T17:58:07.202Z,50.80
2022-08-05T18:00:40.786Z,50.00
2022-08-05T18:03:39.367Z,49.70
2022-08-05T18:06:11.331Z,50.20
2022-08-05T18:08:40.556Z,50.60
2022-08-05T18:11:11.543Z,51.30
2022-08-05T18:13:52.450Z,51.50
2022-08-05T18:16:20.333Z,51.60
2022-08-05T18:18:49.951Z,52.30
2022-08-05T18:21:21.375Z,52.30
2022-08-05T18:23:53.690Z,52.90
2022-08-05T18:26:22.015Z,53.10
2022-08-05T18:28:57.061Z,53.40
2022-08-05T18:31:24.359Z,53.70
2022-08-05T18:33:52.009Z,53.70
2022-08-05T18:36:19.460Z,53.70
2022-08-05T18:38:46.674Z,54.10
2022-08-05T18:41:57.877Z,53.80
2022-08-05T18:44:05.788Z,54.40
2022-08-05T18:46:34.850Z,54.50
2022-08-05T18:49:21.603Z,54.50
2022-08-05T18:52:08.850Z,54.90
2022-08-05T18:54:41.111Z,54.90
2022-08-05T18:57:09.818Z,55.60
2022-08-05T19:00:02.329Z,55.60
2022-08-05T19:02:29.734Z,55.90
2022-08-05T19:05:02.375Z,56.30
2022-08-05T19:07:46.529Z,56.00
2022-08-05T19:10:17.568Z,56.10
2022-08-05T19:12:46.286Z,56.30
2022-08-05T19:15:56.676Z,57.00
2022-08-05T19:18:09.138Z,56.90
2022-08-05T19:20:37.067Z,57.10
2022-08-05T19:23:08.875Z,57.40
2022-08-05T19:26:01.841Z,57.20
2022-08-05T19:28:34.823Z,57.20
2022-08-05T19:31:05.807Z,57.20
2022-08-05T19:33:36.831Z,57.40
2022-08-05T19:36:07.351Z,56.90
2022-08-05T19:38:36.448Z,57.60
2022-08-05T19:41:07.402Z,57.90
2022-08-05T19:44:06.462Z,57.00
2022-08-05T19:46:29.741Z,56.60
2022-08-05T19:49:02.885Z,57.80
2022-08-05T19:52:08.461Z,59.00
2022-08-05T19:54:25.594Z,57.70
2022-08-05T19:56:58.067Z,56.80
2022-08-05T19:59:56.429Z,57.00
2022-08-05T20:02:13.323Z,60.10
2022-08-05T20:04:43.155Z,64.30
2022-08-05T20:07:13.756Z,67.20
2022-08-05T20:09:54.476Z,71.90
2022-08-05T20:12:23.732Z,75.00
2022-08-05T20:14:52.251Z,74.10
2022-08-05T20:17:23.477Z,79.70
2022-08-05T20:19:57.368Z,81.80
2022-08-05T20:22:27.238Z,85.60
2022-08-05T20:24:55.410Z,90.50
2022-08-05T20:27:26.993Z,94.30
2022-08-05T20:29:58.401Z,94.90
2022-08-05T20:32:26.777Z,97.30
2022-08-05T20:34:54.382Z,98.50
2022-08-05T20:38:05.039Z,95.60
2022-08-05T20:40:08.915Z,93.90
2022-08-05T20:42:36.081Z,93.00
2022-08-05T20:45:04.232Z,92.80
2022-08-05T20:47:33.233Z,93.70
2022-08-05T20:50:02.185Z,95.40
2022-08-05T20:52:29.964Z,94.80
2022-08-05T20:55:15.953Z,93.70
2022-08-05T20:57:45.132Z,97.30
2022-08-05T21:00:41.479Z,99.90
2022-08-05T21:03:06.140Z,99.90
2022-08-05T21:05:47.883Z,99.90
2022-08-05T21:08:26.505Z,99.90
2022-08-05T21:11:00.637Z,99.90
2022-08-05T21:13:56.018Z,99.90
2022-08-05T21:16:19.608Z,99.90
2022-08-05T21:18:46.481Z,99.90
2022-08-05T21:21:14.970Z,99.90
2022-08-05T21:23:42.696Z,99.90
2022-08-05T21:26:14.273Z,99.90
2022-08-05T21:28:47.890Z,99.90
2022-08-05T21:31:18.393Z,99.90
2022-08-05T21:33:47.778Z,99.90
2022-08-05T21:36:19.130Z,99.90
2022-08-05T21:38:54.900Z,99.90
2022-08-05T21:41:21.888Z,99.90
2022-08-05T21:44:01.704Z,99.90
2022-08-05T21:46:31.341Z,99.90
2022-08-05T21:48:59.912Z,99.90
2022-08-05T21:52:26.832Z,99.90
2022-08-05T21:54:14.057Z,99.90
2022-08-05T21:56:44.247Z,99.90
2022-08-05T21:59:24.423Z,99.20
2022-08-05T22:01:54.591Z,99.20
2022-08-05T22:04:25.457Z,99.30
2022-08-05T22:06:52.874Z,99.40
2022-08-05T22:09:21.590Z,99.50
2022-08-05T22:11:49.367Z,99.90
2022-08-05T22:14:35.359Z,99.80
2022-08-05T22:17:06.415Z,99.90
2022-08-05T22:20:02.937Z,99.90
2022-08-05T22:22:27.418Z,99.90
2022-08-05T22:25:14.568Z,99.90
2022-08-05T22:28:08.771Z,99.90
2022-08-05T22:30:44.318Z,99.90
2022-08-05T22:33:56.593Z,99.90
2022-08-05T22:36:14.772Z,99.90
2022-08-05T22:38:43.138Z,99.90
2022-08-05T22:41:10.404Z,99.90
2022-08-05T22:43:38.295Z,99.90
2022-08-05T22:46:12.183Z,99.90
2022-08-05T22:48:50.090Z,99.90
2022-08-05T22:51:22.667Z,99.90
2022-08-05T22:53:56.929Z,99.90
2022-08-05T22:56:30.068Z,99.90
2022-08-05T22:59:00.129Z,99.90
2022-08-05T23:02:04.930Z,99.90
2022-08-05T23:04:18.911Z,99.90
2022-08-05T23:06:46.186Z,99.90
2022-08-05T23:09:27.682Z,99.90
2022-08-05T23:12:02.712Z,99.90
2022-08-05T23:14:32.199Z,99.90
2022-08-05T23:17:24.450Z,99.90
2022-08-05T23:20:00.653Z,99.90
2022-08-05T23:22:29.274Z,99.90
2022-08-05T23:24:57.936Z,99.90
2022-08-05T23:27:28.784Z,99.90
2022-08-05T23:30:00.944Z,99.90
2022-08-05T23:32:28.275Z,99.90
2022-08-05T23:34:56.046Z,99.90
2022-08-05T23:37:23.207Z,99.90
2022-08-05T23:39:54.828Z,99.90
2022-08-05T23:42:29.182Z,99.90
2022-08-05T23:44:57.189Z,99.90
2022-08-05T23:47:25.001Z,99.90
2022-08-05T23:49:56.330Z,99.90
2022-08-05T23:52:27.486Z,99.90
2022-08-05T23:54:56.889Z,99.90
2022-08-05T23:57:24.880Z,99.90
